createdAt,value
2023-05-14T00:00:36.024Z,21.7846
2023-05-14T00:01:37.762Z,21.8150
2023-05-14T00:02:39.547Z,21.8362
2023-05-14T00:03:41.451Z,21.8218
2023-05-14T00:04:42.980Z,21.8173
2023-05-14T00:05:44.704Z,21.8318
2023-05-14T00:06:46.459Z,21.8294
2023-05-14T00:07:48.157Z,21.8253
2023-05-14T00:08:49.906Z,21.8400
2023-05-14T00:09:51.659Z,21.8382
2023-05-14T00:10:53.385Z,21.8251
2023-05-14T00:11:55.097Z,21.8076
2023-05-14T00:12:56.835Z,21.8166
2023-05-14T00:13:58.567Z,21.8256
2023-05-14T00:15:00.321Z,21.8042
2023-05-14T00:16:02.064Z,21.7874
2023-05-14T00:17:03.763Z,21.7914
2023-05-14T00:18:05.532Z,21.8002
2023-05-14T00:19:07.378Z,21.8235
2023-05-14T00:20:09.077Z,21.8402
2023-05-14T00:21:10.807Z,21.8216
2023-05-14T00:22:12.519Z,21.7964
2023-05-14T00:23:14.253Z,21.8157
2023-05-14T00:24:15.989Z,21.8256
2023-05-14T00:25:17.715Z,21.8277
2023-05-14T00:26:19.456Z,21.8321
2023-05-14T00:27:21.190Z,21.8506
2023-05-14T00:28:22.933Z,21.8467
2023-05-14T00:29:24.673Z,21.8392
2023-05-14T00:30:26.407Z,21.8337
2023-05-14T00:31:28.135Z,21.8307
2023-05-14T00:32:29.911Z,21.8303
2023-05-14T00:33:31.605Z,21.8145
2023-05-14T00:34:33.333Z,21.8161
2023-05-14T00:35:35.077Z,21.8233
2023-05-14T00:36:36.787Z,21.8309
2023-05-14T00:37:38.512Z,21.8237
2023-05-14T00:38:40.251Z,21.8255
2023-05-14T00:39:42.004Z,21.8396
2023-05-14T00:40:43.738Z,21.8173
2023-05-14T00:41:45.464Z,21.7904
2023-05-14T00:42:47.190Z,21.7921
2023-05-14T00:43:48.913Z,21.8127
2023-05-14T00:44:50.665Z,21.8205
2023-05-14T00:45:52.402Z,21.8029
2023-05-14T00:46:54.198Z,21.7941
2023-05-14T00:47:55.849Z,21.8046
2023-05-14T00:48:57.570Z,21.8098
2023-05-14T00:49:59.318Z,21.8230
2023-05-14T00:51:01.058Z,21.8176
2023-05-14T00:52:02.784Z,21.8218
2023-05-14T00:53:04.497Z,21.8083
2023-05-14T00:54:06.244Z,21.7867
2023-05-14T00:55:07.985Z,21.7801
2023-05-14T00:56:09.743Z,21.7726
2023-05-14T00:57:11.466Z,21.7804
2023-05-14T00:58:13.169Z,21.7800
2023-05-14T00:59:14.891Z,21.7556
2023-05-14T01:00:16.691Z,21.7221
2023-05-14T01:01:18.414Z,21.7088
2023-05-14T01:02:20.142Z,21.7155
2023-05-14T01:03:21.872Z,21.7518
2023-05-14T01:04:23.547Z,21.7697
2023-05-14T01:05:25.276Z,21.7847
2023-05-14T01:06:27.039Z,21.7913
2023-05-14T01:07:28.765Z,21.7981
2023-05-14T01:08:30.491Z,21.7958
2023-05-14T01:09:32.207Z,21.8044
2023-05-14T01:10:33.943Z,21.8270
2023-05-14T01:11:35.685Z,21.8188
2023-05-14T01:12:37.427Z,21.8084
2023-05-14T01:13:39.159Z,21.8121
2023-05-14T01:14:40.873Z,21.8257
2023-05-14T01:15:42.602Z,21.8251
2023-05-14T01:16:44.361Z,21.8179
2023-05-14T01:17:46.118Z,21.8014
2023-05-14T01:18:47.878Z,21.8072
2023-05-14T01:19:49.531Z,21.8102
2023-05-14T01:20:51.267Z,21.8145
2023-05-14T01:21:53.012Z,21.8111
2023-05-14T01:22:54.772Z,21.8127
2023-05-14T01:23:56.488Z,21.8131
2023-05-14T01:24:58.227Z,21.8091
2023-05-14T01:25:59.937Z,21.7882
2023-05-14T01:27:01.684Z,21.7749
2023-05-14T01:28:03.397Z,21.7808
2023-05-14T01:29:05.164Z,21.8024
2023-05-14T01:30:06.886Z,21.8138
2023-05-14T01:31:08.605Z,21.7917
2023-05-14T01:32:10.433Z,21.7877
2023-05-14T01:33:12.070Z,21.7900
2023-05-14T01:34:13.820Z,21.7921
2023-05-14T01:35:15.563Z,21.7950
2023-05-14T01:36:17.265Z,21.8021
2023-05-14T01:37:19.008Z,21.8096
2023-05-14T01:38:20.755Z,21.8165
2023-05-14T01:39:22.465Z,21.8276
2023-05-14T01:40:24.395Z,21.8327
2023-05-14T01:41:25.926Z,21.8394
2023-05-14T01:42:27.680Z,21.8531
2023-05-14T01:43:29.510Z,21.8517
2023-05-14T01:44:31.136Z,21.8227
2023-05-14T01:45:32.845Z,21.8157
2023-05-14T01:46:34.579Z,21.7998
2023-05-14T01:47:36.364Z,21.8058
2023-05-14T01:48:38.059Z,21.8080
2023-05-14T01:49:39.786Z,21.8145
2023-05-14T01:50:41.502Z,21.8297
2023-05-14T01:51:43.242Z,21.8420
2023-05-14T01:52:45.004Z,21.8443
2023-05-14T01:53:46.692Z,21.8141
2023-05-14T01:54:48.435Z,21.8105
2023-05-14T01:55:50.160Z,21.8022
2023-05-14T01:56:51.907Z,21.7894
2023-05-14T01:57:53.643Z,21.7915
2023-05-14T01:58:55.369Z,21.8088
2023-05-14T01:59:57.080Z,21.8176
2023-05-14T02:00:58.888Z,21.8162
2023-05-14T02:02:00.742Z,21.8082
2023-05-14T02:03:02.359Z,21.8173
2023-05-14T02:04:04.104Z,21.8138
2023-05-14T02:05:06.913Z,21.7918
2023-05-14T02:07:27.112Z,21.9556
2023-05-14T02:08:28.754Z,21.7835
2023-05-14T02:09:30.486Z,21.7894
2023-05-14T02:12:26.325Z,21.9772
2023-05-14T02:13:28.043Z,21.8207
2023-05-14T02:14:29.773Z,21.8065
2023-05-14T02:15:31.531Z,21.7960
2023-05-14T02:16:33.257Z,21.7905
2023-05-14T02:17:35.037Z,21.7909
2023-05-14T02:18:36.759Z,21.7877
2023-05-14T02:19:38.480Z,21.7866
2023-05-14T02:20:40.188Z,21.8009
2023-05-14T02:21:41.939Z,21.8228
2023-05-14T02:22:43.655Z,21.8260
2023-05-14T02:23:45.387Z,21.8046
2023-05-14T02:24:47.132Z,21.7967
2023-05-14T02:25:48.855Z,21.7893
2023-05-14T02:26:50.621Z,21.7857
2023-05-14T02:27:52.355Z,21.7840
2023-05-14T02:28:54.072Z,21.7926
2023-05-14T02:29:55.805Z,21.7914
2023-05-14T02:34:11.282Z,21.9277
2023-05-14T02:35:13.001Z,21.7680
2023-05-14T02:36:14.761Z,21.7867
2023-05-14T02:37:16.468Z,21.7917
2023-05-14T02:38:18.259Z,21.7935
2023-05-14T02:39:19.947Z,21.7976
2023-05-14T02:40:21.871Z,21.7839
2023-05-14T02:41:23.418Z,21.7664
2023-05-14T02:42:25.173Z,21.7685
2023-05-14T02:43:26.898Z,21.7755
2023-05-14T02:44:28.651Z,21.7679
2023-05-14T02:45:30.393Z,21.7704
2023-05-14T02:46:32.314Z,21.7861
2023-05-14T02:47:36.030Z,21.7943
2023-05-14T02:48:35.571Z,21.8020
2023-05-14T02:49:37.328Z,21.7941
2023-05-14T02:50:39.064Z,21.7916
2023-05-14T02:51:40.774Z,21.8049
2023-05-14T02:52:42.503Z,21.8168
2023-05-14T02:53:44.239Z,21.8172
2023-05-14T02:54:46.004Z,21.7978
2023-05-14T02:55:47.758Z,21.7876
2023-05-14T02:56:49.443Z,21.7898
2023-05-14T02:57:51.185Z,21.7897
2023-05-14T02:58:52.922Z,21.7656
2023-05-14T02:59:54.670Z,21.7656
2023-05-14T03:00:56.486Z,21.7775
2023-05-14T03:01:58.199Z,21.7886
2023-05-14T03:02:59.876Z,21.7965
2023-05-14T03:04:01.592Z,21.7960
2023-05-14T03:05:03.323Z,21.7877
2023-05-14T03:06:05.085Z,21.7749
2023-05-14T03:07:06.818Z,21.7930
2023-05-14T03:08:08.529Z,21.8065
2023-05-14T03:09:10.269Z,21.8020
2023-05-14T03:10:11.993Z,21.8249
2023-05-14T03:11:13.763Z,21.8392
2023-05-14T03:12:15.486Z,21.8342
2023-05-14T03:13:17.221Z,21.8058
2023-05-14T03:14:18.972Z,21.7890
2023-05-14T03:15:20.672Z,21.7884
2023-05-14T03:16:22.442Z,21.7818
2023-05-14T03:17:24.217Z,21.7690
2023-05-14T03:18:25.969Z,21.7704
2023-05-14T03:19:27.619Z,21.7783
2023-05-14T03:20:29.331Z,21.7875
2023-05-14T03:21:31.072Z,21.7812
2023-05-14T03:22:32.829Z,21.7870
2023-05-14T03:23:34.585Z,21.7999
2023-05-14T03:24:36.301Z,21.7966
2023-05-14T03:25:38.027Z,21.7799
2023-05-14T03:26:39.756Z,21.7772
2023-05-14T03:27:41.514Z,21.7801
2023-05-14T03:28:43.259Z,21.7769
2023-05-14T03:29:44.958Z,21.7901
2023-05-14T03:30:46.764Z,21.7921
2023-05-14T03:31:48.445Z,21.7834
2023-05-14T03:32:50.235Z,21.7806
2023-05-14T03:33:51.934Z,21.7577
2023-05-14T03:34:53.645Z,21.7597
2023-05-14T03:35:55.385Z,21.7791
2023-05-14T03:36:57.133Z,21.7837
2023-05-14T03:37:58.877Z,21.7838
2023-05-14T03:39:00.620Z,21.7970
2023-05-14T03:40:02.358Z,21.8112
2023-05-14T03:41:04.060Z,21.8265
2023-05-14T03:42:05.796Z,21.8115
2023-05-14T03:43:07.543Z,21.7962
2023-05-14T03:44:09.294Z,21.7987
2023-05-14T03:45:11.037Z,21.8074
2023-05-14T03:46:12.740Z,21.8241
2023-05-14T03:47:14.472Z,21.8273
2023-05-14T03:48:16.298Z,21.8349
2023-05-14T03:49:17.983Z,21.8328
2023-05-14T03:50:19.697Z,21.8290
2023-05-14T03:51:21.434Z,21.8207
2023-05-14T03:52:23.151Z,21.8261
2023-05-14T03:53:24.885Z,21.8200
2023-05-14T03:54:26.638Z,21.8089
2023-05-14T03:55:28.375Z,21.8171
2023-05-14T03:56:30.095Z,21.8076
2023-05-14T03:57:31.847Z,21.7992
2023-05-14T03:58:33.586Z,21.8069
2023-05-14T03:59:35.315Z,21.8160
2023-05-14T04:00:37.032Z,21.8111
2023-05-14T04:01:38.791Z,21.8081
2023-05-14T04:02:40.561Z,21.8016
2023-05-14T04:03:42.368Z,21.8029
2023-05-14T04:04:44.000Z,21.8047
2023-05-14T04:05:45.725Z,21.7970
2023-05-14T04:06:47.455Z,21.8004
2023-05-14T04:07:49.221Z,21.8062
2023-05-14T04:08:50.908Z,21.8059
2023-05-14T04:09:52.662Z,21.8077
2023-05-14T04:10:54.424Z,21.8075
2023-05-14T04:11:56.125Z,21.7943
2023-05-14T04:12:57.876Z,21.8014
2023-05-14T04:13:59.577Z,21.7990
2023-05-14T04:15:01.330Z,21.8071
2023-05-14T04:16:03.060Z,21.7916
2023-05-14T04:17:04.814Z,21.7948
2023-05-14T04:18:06.629Z,21.8086
2023-05-14T04:19:08.322Z,21.8140
2023-05-14T04:20:09.991Z,21.8185
2023-05-14T04:21:11.727Z,21.8075
2023-05-14T04:22:13.465Z,21.7938
2023-05-14T04:23:15.214Z,21.7954
2023-05-14T04:24:16.950Z,21.8030
2023-05-14T04:25:18.667Z,21.8078
2023-05-14T04:26:20.430Z,21.8076
2023-05-14T04:27:22.138Z,21.8187
2023-05-14T04:28:23.895Z,21.8352
2023-05-14T04:29:25.634Z,21.8491
2023-05-14T04:30:27.382Z,21.8311
2023-05-14T04:31:29.130Z,21.8203
2023-05-14T04:32:30.818Z,21.8117
2023-05-14T04:33:32.569Z,21.8162
2023-05-14T04:34:34.296Z,21.8277
2023-05-14T04:35:36.067Z,21.8246
2023-05-14T04:36:37.751Z,21.8250
2023-05-14T04:37:39.472Z,21.8211
2023-05-14T04:38:41.226Z,21.8153
2023-05-14T04:39:42.963Z,21.8312
2023-05-14T04:40:44.698Z,21.8310
2023-05-14T04:41:46.429Z,21.8257
2023-05-14T04:42:48.169Z,21.8197
2023-05-14T04:43:49.892Z,21.8214
2023-05-14T04:44:51.599Z,21.8279
2023-05-14T04:45:53.363Z,21.8084
2023-05-14T04:46:55.096Z,21.8089
2023-05-14T04:47:56.859Z,21.8161
2023-05-14T04:48:58.574Z,21.8109
2023-05-14T04:50:00.396Z,21.8240
2023-05-14T04:51:02.025Z,21.8264
2023-05-14T04:52:03.767Z,21.8033
2023-05-14T04:53:05.508Z,21.8145
2023-05-14T04:54:07.238Z,21.8152
2023-05-14T04:55:08.960Z,21.8017
2023-05-14T04:56:10.696Z,21.7940
2023-05-14T04:57:12.425Z,21.8052
2023-05-14T04:58:14.139Z,21.8205
2023-05-14T04:59:15.872Z,21.8407
2023-05-14T05:00:17.610Z,21.8574
2023-05-14T05:01:19.420Z,21.8664
2023-05-14T05:02:21.092Z,21.8698
2023-05-14T05:03:22.967Z,21.8458
2023-05-14T05:04:24.540Z,21.8310
2023-05-14T05:05:26.288Z,21.8245
2023-05-14T05:06:28.050Z,21.8475
2023-05-14T05:07:29.781Z,21.8429
2023-05-14T05:08:31.501Z,21.8501
2023-05-14T05:09:33.217Z,21.8417
2023-05-14T05:10:34.998Z,21.8012
2023-05-14T05:11:36.706Z,21.8079
2023-05-14T05:12:38.466Z,21.8234
2023-05-14T05:13:40.157Z,21.8112
2023-05-14T05:14:41.889Z,21.8088
2023-05-14T05:15:43.659Z,21.8139
2023-05-14T05:16:45.382Z,21.8206
2023-05-14T05:17:47.180Z,21.7977
2023-05-14T05:18:48.879Z,21.7966
2023-05-14T05:19:50.582Z,21.8015
2023-05-14T05:20:52.297Z,21.8041
2023-05-14T05:21:54.053Z,21.8062
2023-05-14T05:22:55.791Z,21.8009
2023-05-14T05:23:57.514Z,21.7924
2023-05-14T05:24:59.240Z,21.7829
2023-05-14T05:26:00.989Z,21.7785
2023-05-14T05:27:02.742Z,21.7818
2023-05-14T05:28:04.460Z,21.7825
2023-05-14T05:29:06.213Z,21.7863
2023-05-14T05:30:07.917Z,21.7854
2023-05-14T05:31:09.662Z,21.7689
2023-05-14T05:32:11.393Z,21.7904
2023-05-14T05:33:13.131Z,21.8038
2023-05-14T05:34:14.863Z,21.8108
2023-05-14T05:35:16.581Z,21.8194
2023-05-14T05:36:18.320Z,21.8220
2023-05-14T05:37:20.049Z,21.8097
2023-05-14T05:38:21.799Z,21.8072
2023-05-14T05:39:23.546Z,21.8158
2023-05-14T05:40:25.661Z,21.8188
2023-05-14T05:41:26.972Z,21.8220
2023-05-14T05:42:28.721Z,21.8179
2023-05-14T05:43:30.437Z,21.8107
2023-05-14T05:44:32.197Z,21.8181
2023-05-14T05:45:33.922Z,21.8203
2023-05-14T05:46:35.675Z,21.8265
2023-05-14T05:47:37.468Z,21.7991
2023-05-14T05:48:39.109Z,21.8024
2023-05-14T05:49:40.870Z,21.7945
2023-05-14T05:50:42.591Z,21.8007
2023-05-14T05:51:44.326Z,21.8061
2023-05-14T05:52:46.036Z,21.8096
2023-05-14T05:53:47.842Z,21.8289
2023-05-14T05:54:49.524Z,21.8447
2023-05-14T05:55:51.237Z,21.8365
2023-05-14T05:56:52.980Z,21.8224
2023-05-14T05:57:54.714Z,21.8071
2023-05-14T05:58:56.470Z,21.8219
2023-05-14T05:59:58.196Z,21.8203
2023-05-14T06:00:59.913Z,21.8082
2023-05-14T06:02:01.667Z,21.8197
2023-05-14T06:03:03.416Z,21.8164
2023-05-14T06:04:05.115Z,21.8098
2023-05-14T06:05:06.874Z,21.8107
2023-05-14T06:06:08.622Z,21.7939
2023-05-14T06:07:10.292Z,21.7789
2023-05-14T06:08:12.046Z,21.7699
2023-05-14T06:09:13.764Z,21.7706
2023-05-14T06:10:15.537Z,21.7768
2023-05-14T06:11:17.282Z,21.7826
2023-05-14T06:12:18.967Z,21.7925
2023-05-14T06:13:20.707Z,21.8035
2023-05-14T06:14:22.432Z,21.8045
2023-05-14T06:15:24.199Z,21.7978
2023-05-14T06:16:25.931Z,21.7672
2023-05-14T06:17:27.733Z,21.7680
2023-05-14T06:18:29.411Z,21.8002
2023-05-14T06:19:31.097Z,21.8161
2023-05-14T06:20:32.856Z,21.7991
2023-05-14T06:21:34.586Z,21.7872
2023-05-14T06:22:36.329Z,21.7897
2023-05-14T06:23:38.044Z,21.7970
2023-05-14T06:24:39.767Z,21.7908
2023-05-14T06:25:41.487Z,21.7837
2023-05-14T06:26:43.231Z,21.7626
2023-05-14T06:27:44.974Z,21.7749
2023-05-14T06:28:46.697Z,21.7943
2023-05-14T06:29:48.416Z,21.8055
2023-05-14T06:30:50.148Z,21.8030
2023-05-14T06:31:51.900Z,21.7928
2023-05-14T06:32:53.654Z,21.7941
2023-05-14T06:33:55.343Z,21.8042
2023-05-14T06:34:57.094Z,21.8047
2023-05-14T06:35:58.932Z,21.8112
2023-05-14T06:37:00.654Z,21.7984
2023-05-14T06:38:02.366Z,21.8013
2023-05-14T06:39:04.103Z,21.7995
2023-05-14T06:40:05.836Z,21.8035
2023-05-14T06:41:07.580Z,21.8018
2023-05-14T06:42:09.325Z,21.8062
2023-05-14T06:43:11.019Z,21.8088
2023-05-14T06:44:12.751Z,21.8180
2023-05-14T06:45:14.478Z,21.8118
2023-05-14T06:46:16.263Z,21.8053
2023-05-14T06:47:17.989Z,21.8068
2023-05-14T06:48:19.773Z,21.7905
2023-05-14T06:49:21.403Z,21.7798
2023-05-14T06:50:23.290Z,21.7869
2023-05-14T06:51:24.887Z,21.7903
2023-05-14T06:52:26.619Z,21.7883
2023-05-14T06:53:28.370Z,21.7890
2023-05-14T06:54:30.102Z,21.7944
2023-05-14T06:55:31.835Z,21.8098
2023-05-14T06:56:33.572Z,21.8099
2023-05-14T06:57:35.303Z,21.8067
2023-05-14T06:58:37.022Z,21.8002
2023-05-14T06:59:38.732Z,21.7961
2023-05-14T07:00:40.500Z,21.8002
2023-05-14T07:01:42.250Z,21.8102
2023-05-14T07:02:44.011Z,21.8217
2023-05-14T07:03:45.702Z,21.8025
2023-05-14T07:04:47.452Z,21.7876
2023-05-14T07:05:49.134Z,21.7970
2023-05-14T07:06:50.870Z,21.7962
2023-05-14T07:07:52.605Z,21.7917
2023-05-14T07:08:54.366Z,21.7909
2023-05-14T07:09:56.100Z,21.8003
2023-05-14T07:10:57.819Z,21.8036
2023-05-14T07:11:59.538Z,21.8027
2023-05-14T07:13:01.277Z,21.8220
2023-05-14T07:14:02.999Z,21.8327
2023-05-14T07:15:04.759Z,21.8400
2023-05-14T07:16:06.476Z,21.8318
2023-05-14T07:17:08.260Z,21.8069
2023-05-14T07:18:09.934Z,21.8335
2023-05-14T07:19:11.725Z,21.8558
2023-05-14T07:20:13.412Z,21.8581
2023-05-14T07:21:15.128Z,21.8583
2023-05-14T07:22:16.876Z,21.8549
2023-05-14T07:23:19.774Z,21.8423
2023-05-14T07:24:20.316Z,21.8241
2023-05-14T07:25:22.062Z,21.8245
2023-05-14T07:26:23.799Z,21.8426
2023-05-14T07:27:25.531Z,21.8635
2023-05-14T07:28:27.243Z,21.8541
2023-05-14T07:29:28.986Z,21.8309
2023-05-14T07:30:30.718Z,21.8091
2023-05-14T07:31:32.485Z,21.8058
2023-05-14T07:32:34.191Z,21.8067
2023-05-14T07:33:35.923Z,21.8097
2023-05-14T07:34:37.644Z,21.8138
2023-05-14T07:35:39.378Z,21.8047
2023-05-14T07:36:41.083Z,21.8129
2023-05-14T07:37:42.845Z,21.8118
2023-05-14T07:38:44.550Z,21.8151
2023-05-14T07:39:46.293Z,21.8187
2023-05-14T07:40:48.028Z,21.7896
2023-05-14T07:41:49.732Z,21.7778
2023-05-14T07:42:51.472Z,21.7897
2023-05-14T07:43:53.216Z,21.8040
2023-05-14T07:44:54.950Z,21.8185
2023-05-14T07:45:56.688Z,21.8089
2023-05-14T07:46:58.442Z,21.8093
2023-05-14T07:48:00.317Z,21.8341
2023-05-14T07:49:01.856Z,21.8297
2023-05-14T07:50:03.596Z,21.8036
2023-05-14T07:51:05.352Z,21.8132
2023-05-14T07:52:07.067Z,21.8027
2023-05-14T07:53:08.776Z,21.8116
2023-05-14T07:54:10.512Z,21.8256
2023-05-14T07:55:12.247Z,21.8262
2023-05-14T07:56:14.006Z,21.8353
2023-05-14T07:57:15.730Z,21.8402
2023-05-14T07:58:17.435Z,21.8311
2023-05-14T07:59:19.178Z,21.8451
2023-05-14T08:00:20.970Z,21.8639
2023-05-14T08:01:22.657Z,21.8843
2023-05-14T08:02:24.505Z,21.8798
2023-05-14T08:03:26.205Z,21.8673
2023-05-14T08:04:27.895Z,21.8607
2023-05-14T08:05:29.583Z,21.8542
2023-05-14T08:06:31.289Z,21.8547
2023-05-14T08:07:33.038Z,21.8580
2023-05-14T08:08:34.773Z,21.8693
2023-05-14T08:09:36.481Z,21.8628
2023-05-14T08:10:38.235Z,21.8650
2023-05-14T08:11:39.961Z,21.8682
2023-05-14T08:12:41.676Z,21.8632
2023-05-14T08:13:43.434Z,21.8618
2023-05-14T08:14:45.138Z,21.8642
2023-05-14T08:15:46.884Z,21.8740
2023-05-14T08:16:48.670Z,21.8641
2023-05-14T08:17:50.371Z,21.8635
2023-05-14T08:18:52.078Z,21.8713
2023-05-14T08:19:53.773Z,21.8711
2023-05-14T08:20:55.535Z,21.8790
2023-05-14T08:21:57.256Z,21.8826
2023-05-14T08:22:58.996Z,21.8658
2023-05-14T08:24:00.707Z,21.8480
2023-05-14T08:25:02.462Z,21.8570
2023-05-14T08:26:04.200Z,21.8571
2023-05-14T08:27:05.889Z,21.8513
2023-05-14T08:28:07.653Z,21.8546
2023-05-14T08:29:10.765Z,21.8573
2023-05-14T08:30:11.105Z,21.8466
2023-05-14T08:31:12.861Z,21.8564
2023-05-14T08:32:22.766Z,21.8645
2023-05-14T08:33:16.274Z,21.8576
2023-05-14T08:34:18.029Z,21.8508
2023-05-14T08:35:19.763Z,21.8623
2023-05-14T08:36:21.499Z,21.8870
2023-05-14T08:37:23.208Z,21.8999
2023-05-14T08:38:24.927Z,21.8910
2023-05-14T08:39:26.654Z,21.8694
2023-05-14T08:40:28.414Z,21.8720
2023-05-14T08:41:30.136Z,21.8883
2023-05-14T08:42:31.848Z,21.8976
2023-05-14T08:43:33.573Z,21.8946
2023-05-14T08:44:35.353Z,21.8797
2023-05-14T08:45:37.054Z,21.8920
2023-05-14T08:46:38.793Z,21.8639
2023-05-14T08:47:40.547Z,21.8618
2023-05-14T08:48:42.241Z,21.8711
2023-05-14T08:49:43.960Z,21.8424
2023-05-14T08:50:45.709Z,21.8467
2023-05-14T08:51:47.447Z,21.8430
2023-05-14T08:52:49.160Z,21.8345
2023-05-14T08:53:50.875Z,21.8415
2023-05-14T08:54:52.611Z,21.8492
2023-05-14T08:55:54.332Z,21.8505
2023-05-14T08:56:56.079Z,21.8609
2023-05-14T08:57:57.810Z,21.8593
2023-05-14T08:58:59.505Z,21.8682
2023-05-14T09:00:01.290Z,21.8743
2023-05-14T09:01:02.968Z,21.8608
2023-05-14T09:02:04.810Z,21.8526
2023-05-14T09:03:06.487Z,21.8576
2023-05-14T09:04:08.157Z,21.8412
2023-05-14T09:05:09.898Z,21.8494
2023-05-14T09:06:11.598Z,21.8588
2023-05-14T09:07:13.351Z,21.8658
2023-05-14T09:08:15.073Z,21.8536
2023-05-14T09:09:16.819Z,21.8448
2023-05-14T09:10:18.526Z,21.8668
2023-05-14T09:11:20.241Z,21.8853
2023-05-14T09:12:22.011Z,21.8796
2023-05-14T09:13:24.140Z,21.8870
2023-05-14T09:14:25.449Z,21.8810
2023-05-14T09:15:27.161Z,21.8933
2023-05-14T09:16:28.941Z,21.8987
2023-05-14T09:17:30.671Z,21.9058
2023-05-14T09:18:32.397Z,21.8893
2023-05-14T09:19:34.110Z,21.8828
2023-05-14T09:20:35.805Z,21.8671
2023-05-14T09:21:37.518Z,21.8694
2023-05-14T09:22:39.264Z,21.8730
2023-05-14T09:23:41.004Z,21.8543
2023-05-14T09:24:42.730Z,21.8475
2023-05-14T09:25:44.460Z,21.8611
2023-05-14T09:26:46.188Z,21.8518
2023-05-14T09:27:47.913Z,21.8429
2023-05-14T09:28:49.635Z,21.8427
2023-05-14T09:29:51.341Z,21.8245
2023-05-14T09:30:53.082Z,21.8014
2023-05-14T09:31:54.898Z,21.8088
2023-05-14T09:32:56.615Z,21.8495
2023-05-14T09:33:58.292Z,21.8492
2023-05-14T09:34:59.992Z,21.8344
2023-05-14T09:36:01.723Z,21.8383
2023-05-14T09:37:03.475Z,21.8469
2023-05-14T09:38:05.190Z,21.8542
2023-05-14T09:39:06.921Z,21.8575
2023-05-14T09:40:08.637Z,21.8622
2023-05-14T09:41:10.358Z,21.8659
2023-05-14T09:42:12.099Z,21.8775
2023-05-14T09:43:13.820Z,21.8872
2023-05-14T09:44:15.545Z,21.8876
2023-05-14T09:45:17.271Z,21.8770
2023-05-14T09:46:18.990Z,21.8572
2023-05-14T09:47:20.799Z,21.8635
2023-05-14T09:48:22.579Z,21.8740
2023-05-14T09:49:24.180Z,21.8686
2023-05-14T09:50:26.153Z,21.8708
2023-05-14T09:51:27.640Z,21.8691
2023-05-14T09:52:29.360Z,21.8640
2023-05-14T09:53:31.087Z,21.8667
2023-05-14T09:54:32.815Z,21.8808
2023-05-14T09:55:34.519Z,21.8690
2023-05-14T09:56:36.286Z,21.8889
2023-05-14T09:57:38.002Z,21.8997
2023-05-14T09:58:39.709Z,21.9018
2023-05-14T09:59:41.431Z,21.8974
2023-05-14T10:00:43.189Z,21.8983
2023-05-14T10:01:44.983Z,21.9003
2023-05-14T10:02:46.699Z,21.8693
2023-05-14T10:03:48.369Z,21.8675
2023-05-14T10:04:50.325Z,21.8782
2023-05-14T10:05:51.820Z,21.8876
2023-05-14T10:06:53.546Z,21.9033
2023-05-14T10:07:55.289Z,21.9164
2023-05-14T10:08:57.003Z,21.9090
2023-05-14T10:09:59.546Z,21.9110
2023-05-14T10:11:00.472Z,21.8963
2023-05-14T10:12:02.214Z,21.9020
2023-05-14T10:13:03.899Z,21.9022
2023-05-14T10:14:05.639Z,21.9055
2023-05-14T10:15:07.386Z,21.9098
2023-05-14T10:16:09.121Z,21.9195
2023-05-14T10:17:10.950Z,21.9217
2023-05-14T10:18:12.607Z,21.9307
2023-05-14T10:19:14.305Z,21.9263
2023-05-14T10:20:16.054Z,21.9126
2023-05-14T10:21:17.764Z,21.9149
2023-05-14T10:22:19.494Z,21.9228
2023-05-14T10:23:21.226Z,21.8999
2023-05-14T10:24:22.927Z,21.9046
2023-05-14T10:25:24.669Z,21.9244
2023-05-14T10:26:26.431Z,21.9194
2023-05-14T10:27:28.140Z,21.9150
2023-05-14T10:28:29.861Z,21.9190
2023-05-14T10:29:31.571Z,21.9044
2023-05-14T10:30:33.304Z,21.8954
2023-05-14T10:31:35.094Z,21.8929
2023-05-14T10:32:36.829Z,21.8895
2023-05-14T10:33:38.513Z,21.9066
2023-05-14T10:34:40.235Z,21.9259
2023-05-14T10:35:41.943Z,21.9305
2023-05-14T10:36:43.673Z,21.9293
2023-05-14T10:37:45.429Z,21.9297
2023-05-14T10:38:47.159Z,21.9250
2023-05-14T10:39:48.978Z,21.9276
2023-05-14T10:40:52.824Z,21.9325
2023-05-14T10:41:52.418Z,21.9157
2023-05-14T10:42:54.136Z,21.9077
2023-05-14T10:43:55.897Z,21.9041
2023-05-14T10:44:57.623Z,21.8974
2023-05-14T10:45:59.331Z,21.8846
2023-05-14T10:47:01.070Z,21.8876
2023-05-14T10:48:02.788Z,21.8852
2023-05-14T10:49:04.536Z,21.8836
2023-05-14T10:50:06.266Z,21.8812
2023-05-14T10:51:08.043Z,21.8716
2023-05-14T10:52:09.691Z,21.8664
2023-05-14T10:53:11.422Z,21.8792
2023-05-14T10:54:13.168Z,21.8825
2023-05-14T10:55:14.926Z,21.8795
2023-05-14T10:56:16.632Z,21.8910
2023-05-14T10:57:18.370Z,21.9017
2023-05-14T10:58:20.068Z,21.8933
2023-05-14T10:59:21.820Z,21.9013
2023-05-14T11:00:23.746Z,21.9070
2023-05-14T11:01:25.328Z,21.9106
2023-05-14T11:02:27.043Z,21.9149
2023-05-14T11:03:28.765Z,21.9091
2023-05-14T11:04:30.456Z,21.8994
2023-05-14T11:05:32.203Z,21.9018
2023-05-14T11:06:33.930Z,21.8899
2023-05-14T11:07:35.674Z,21.8742
2023-05-14T11:08:37.395Z,21.8820
2023-05-14T11:09:39.106Z,21.8880
2023-05-14T11:10:40.826Z,21.8854
2023-05-14T11:11:42.604Z,21.8927
2023-05-14T11:12:44.323Z,21.9052
2023-05-14T11:13:46.051Z,21.9208
2023-05-14T11:14:47.783Z,21.9252
2023-05-14T11:15:49.503Z,21.9027
2023-05-14T11:16:51.233Z,21.8733
2023-05-14T11:17:52.954Z,21.8815
2023-05-14T11:18:54.739Z,21.8900
2023-05-14T11:19:56.412Z,21.8815
2023-05-14T11:20:58.146Z,21.8615
2023-05-14T11:21:59.850Z,21.8569
2023-05-14T11:23:01.577Z,21.8716
2023-05-14T11:24:03.303Z,21.8895
2023-05-14T11:25:05.052Z,21.8988
2023-05-14T11:26:06.841Z,21.9104
2023-05-14T11:27:08.497Z,21.9157
2023-05-14T11:28:10.248Z,21.9110
2023-05-14T11:29:11.961Z,21.9126
2023-05-14T11:30:13.689Z,21.9079
2023-05-14T11:31:15.444Z,21.8974
2023-05-14T11:32:17.169Z,21.8949
2023-05-14T11:33:18.954Z,21.9103
2023-05-14T11:34:20.627Z,21.8922
2023-05-14T11:35:22.355Z,21.8793
2023-05-14T11:36:24.061Z,21.8832
2023-05-14T11:37:25.793Z,21.8907
2023-05-14T11:38:27.527Z,21.8984
2023-05-14T11:39:29.257Z,21.9031
2023-05-14T11:40:31.002Z,21.9088
2023-05-14T11:41:32.705Z,21.9143
2023-05-14T11:42:34.448Z,21.9006
2023-05-14T11:43:36.166Z,21.8906
2023-05-14T11:44:37.921Z,21.8913
2023-05-14T11:45:39.693Z,21.8704
2023-05-14T11:46:41.413Z,21.8746
2023-05-14T11:47:43.116Z,21.8856
2023-05-14T11:48:44.809Z,21.9060
2023-05-14T11:49:46.556Z,21.9207
2023-05-14T11:50:48.284Z,21.9187
2023-05-14T11:51:50.013Z,21.9120
2023-05-14T11:52:51.723Z,21.9116
2023-05-14T11:53:53.445Z,21.9166
2023-05-14T11:54:55.193Z,21.9198
2023-05-14T11:55:56.923Z,21.9143
2023-05-14T11:56:58.625Z,21.9292
2023-05-14T11:58:00.365Z,21.9415
2023-05-14T11:59:02.091Z,21.9475
2023-05-14T12:00:03.820Z,21.9430
2023-05-14T12:01:05.582Z,21.9346
2023-05-14T12:02:07.337Z,21.9285
2023-05-14T12:03:09.065Z,21.9204
2023-05-14T12:04:10.843Z,21.9038
2023-05-14T12:05:12.570Z,21.9109
2023-05-14T12:06:14.213Z,21.9192
2023-05-14T12:07:15.952Z,21.9216
2023-05-14T12:08:17.660Z,21.9203
2023-05-14T12:09:19.380Z,21.9305
2023-05-14T12:10:21.121Z,21.9106
2023-05-14T12:11:22.863Z,21.9070
2023-05-14T12:12:24.600Z,21.9035
2023-05-14T12:13:26.325Z,21.9062
2023-05-14T12:14:28.037Z,21.9023
2023-05-14T12:15:29.775Z,21.9008
2023-05-14T12:16:31.588Z,21.8976
2023-05-14T12:17:33.261Z,21.9050
2023-05-14T12:18:35.060Z,21.9151
2023-05-14T12:19:36.697Z,21.9165
2023-05-14T12:20:38.430Z,21.9190
2023-05-14T12:21:40.165Z,21.9129
2023-05-14T12:22:41.864Z,21.9191
2023-05-14T12:23:43.605Z,21.9247
2023-05-14T12:24:45.347Z,21.9314
2023-05-14T12:25:47.073Z,21.9321
2023-05-14T12:26:48.814Z,21.9269
2023-05-14T12:27:50.515Z,21.9303
2023-05-14T12:28:52.256Z,21.9232
2023-05-14T12:29:53.997Z,21.9132
2023-05-14T12:30:55.747Z,21.8944
2023-05-14T12:31:57.546Z,21.9052
2023-05-14T12:32:59.250Z,21.9148